createdAt,value
2018-01-27T00:02:10.984Z,7.20
2018-01-27T00:04:37.302Z,7.10
2018-01-27T00:07:04.476Z,7.40
2018-01-27T00:09:31.037Z,7.40
2018-01-27T00:11:57.128Z,7.40
2018-01-27T00:14:23.201Z,7.40
2018-01-27T00:16:49.254Z,7.40
2018-01-27T00:19:15.293Z,7.50
2018-01-27T00:21:42.069Z,7.60
2018-01-27T00:24:08.117Z,7.50
2018-01-27T00:26:34.366Z,7.30
2018-01-27T00:29:00.417Z,7.30
2018-01-27T00:31:27.189Z,7.50
2018-01-27T00:33:54.157Z,7.50
2018-01-27T00:36:20.198Z,7.60
2018-01-27T00:38:47.336Z,7.60
2018-01-27T00:41:14.209Z,7.60
2018-01-27T00:43:40.233Z,7.60
2018-01-27T00:46:07.029Z,7.70
2018-01-27T00:48:33.086Z,7.70
2018-01-27T00:50:59.107Z,7.70
2018-01-27T00:53:25.160Z,7.70
2018-01-27T00:55:51.165Z,7.80
2018-01-27T00:58:17.202Z,7.80
2018-01-27T01:00:43.252Z,7.70
2018-01-27T01:03:09.280Z,7.70
2018-01-27T01:05:35.305Z,7.70
2018-01-27T01:08:01.728Z,7.80
2018-01-27T01:10:28.689Z,7.70
2018-01-27T01:12:55.456Z,7.70
2018-01-27T01:15:21.542Z,7.70
2018-01-27T01:17:47.850Z,7.80
2018-01-27T01:20:14.226Z,7.80
2018-01-27T01:22:40.528Z,7.80
2018-01-27T01:25:07.489Z,7.80
2018-01-27T01:27:34.601Z,7.90
2018-01-27T01:30:00.804Z,7.90
2018-01-27T01:32:27.081Z,7.90
2018-01-27T01:34:53.305Z,7.90
2018-01-27T01:37:19.496Z,7.90
2018-01-27T01:39:45.753Z,7.60
2018-01-27T01:42:18.215Z,7.80
2018-01-27T01:44:44.420Z,7.80
2018-01-27T01:47:10.669Z,7.90
2018-01-27T01:49:37.065Z,7.90
2018-01-27T01:52:03.268Z,7.90
2018-01-27T01:54:29.501Z,7.70
2018-01-27T01:56:55.697Z,7.70
2018-01-27T01:59:21.921Z,7.30
2018-01-27T02:01:48.873Z,7.40
2018-01-27T02:04:15.108Z,7.40
2018-01-27T02:06:41.285Z,7.40
2018-01-27T02:09:07.496Z,7.50
2018-01-27T02:11:33.765Z,7.60
2018-01-27T02:14:00.000Z,7.50
2018-01-27T02:16:26.223Z,7.50
2018-01-27T02:18:52.432Z,7.40
2018-01-27T02:21:18.532Z,7.30
2018-01-27T02:23:44.557Z,7.50
2018-01-27T02:26:10.600Z,7.70
2018-01-27T02:28:36.619Z,7.70
2018-01-27T02:31:05.629Z,7.70
2018-01-27T02:33:32.389Z,7.80
2018-01-27T02:35:59.389Z,7.90
2018-01-27T02:38:26.512Z,7.90
2018-01-27T02:40:52.844Z,7.80
2018-01-27T02:43:19.984Z,7.70
2018-01-27T02:45:46.964Z,7.70
2018-01-27T02:48:13.332Z,7.60
2018-01-27T02:50:40.312Z,7.70
2018-01-27T02:53:06.747Z,7.80
2018-01-27T02:55:33.208Z,7.90
2018-01-27T02:58:00.197Z,7.80
2018-01-27T03:00:26.434Z,7.80
2018-01-27T03:02:52.638Z,7.50
2018-01-27T03:05:19.179Z,7.70
2018-01-27T03:07:45.408Z,7.80
2018-01-27T03:10:11.702Z,7.90
2018-01-27T03:12:38.021Z,7.90
2018-01-27T03:15:04.984Z,8.00
2018-01-27T03:17:31.208Z,8.00
2018-01-27T03:19:57.444Z,8.00
2018-01-27T03:22:23.656Z,8.00
2018-01-27T03:24:49.876Z,8.00
2018-01-27T03:27:16.845Z,8.00
2018-01-27T03:29:43.071Z,8.00
2018-01-27T03:32:10.024Z,8.10
2018-01-27T03:34:36.224Z,8.00
2018-01-27T03:37:02.456Z,8.00
2018-01-27T03:39:28.649Z,8.00
2018-01-27T03:41:55.620Z,8.00
2018-01-27T03:44:21.839Z,8.00
2018-01-27T03:46:48.053Z,8.00
2018-01-27T03:49:14.297Z,8.00
2018-01-27T03:51:41.911Z,8.00
2018-01-27T03:54:08.196Z,8.10
2018-01-27T03:56:34.396Z,8.10
2018-01-27T03:59:00.624Z,8.00
2018-01-27T04:01:26.864Z,8.10
2018-01-27T04:03:53.836Z,8.00
2018-01-27T04:06:20.047Z,8.00
2018-01-27T04:08:46.265Z,7.90
2018-01-27T04:11:12.469Z,7.90
2018-01-27T04:13:40.037Z,7.90
2018-01-27T04:16:06.332Z,7.90
2018-01-27T04:18:32.543Z,7.90
2018-01-27T04:20:58.768Z,7.90
2018-01-27T04:23:24.992Z,7.80
2018-01-27T04:25:51.945Z,7.70
2018-01-27T04:28:18.908Z,7.70
2018-01-27T04:30:45.468Z,7.70
2018-01-27T04:33:12.404Z,7.60
2018-01-27T04:35:38.639Z,7.60
2018-01-27T04:38:07.612Z,7.60
2018-01-27T04:40:33.884Z,7.50
2018-01-27T04:43:01.945Z,7.50
2018-01-27T04:45:28.185Z,7.50
2018-01-27T04:47:54.425Z,7.50
2018-01-27T04:50:20.665Z,7.40
2018-01-27T04:52:46.852Z,7.30
2018-01-27T04:55:13.808Z,7.20
2018-01-27T04:57:40.032Z,7.30
2018-01-27T05:00:06.244Z,7.30
2018-01-27T05:02:32.447Z,7.20
2018-01-27T05:04:58.659Z,7.20
2018-01-27T05:07:25.416Z,7.20
2018-01-27T05:09:51.434Z,7.20
2018-01-27T05:12:18.221Z,7.30
2018-01-27T05:14:44.240Z,7.30
2018-01-27T05:17:11.003Z,7.30
2018-01-27T05:19:37.115Z,7.30
2018-01-27T05:22:03.144Z,7.40
2018-01-27T05:24:29.188Z,7.40
2018-01-27T05:26:55.206Z,7.40
2018-01-27T05:29:22.172Z,7.50
2018-01-27T05:31:48.196Z,7.50
2018-01-27T05:34:14.227Z,7.60
2018-01-27T05:36:40.268Z,7.50
2018-01-27T05:39:06.284Z,7.60
2018-01-27T05:41:32.308Z,7.60
2018-01-27T05:43:58.333Z,7.70
2018-01-27T05:46:24.356Z,7.60
2018-01-27T05:48:51.126Z,7.60
2018-01-27T05:51:17.161Z,7.60
2018-01-27T05:53:43.192Z,7.50
2018-01-27T05:56:09.204Z,7.50
2018-01-27T05:58:35.264Z,7.50
2018-01-27T06:01:01.305Z,7.40
2018-01-27T06:03:28.055Z,7.40
2018-01-27T06:05:54.825Z,7.40
2018-01-27T06:08:20.860Z,7.40
2018-01-27T06:10:46.885Z,7.30
2018-01-27T06:13:13.694Z,7.40
2018-01-27T06:15:39.764Z,7.40
2018-01-27T06:18:06.571Z,7.40
2018-01-27T06:20:32.565Z,7.40
2018-01-27T06:23:01.884Z,7.40
2018-01-27T06:25:28.846Z,7.40
2018-01-27T06:27:55.076Z,7.30
2018-01-27T06:30:21.920Z,7.40
2018-01-27T06:32:49.053Z,7.40
2018-01-27T06:35:16.117Z,7.40
2018-01-27T06:37:42.396Z,7.40
2018-01-27T06:40:08.594Z,7.10
2018-01-27T06:42:34.833Z,7.30
2018-01-27T06:45:07.231Z,7.30
2018-01-27T06:47:33.265Z,7.20
2018-01-27T06:49:59.324Z,7.20
2018-01-27T06:52:26.312Z,7.30
2018-01-27T06:54:53.228Z,7.10
2018-01-27T06:57:19.468Z,7.10
2018-01-27T06:59:45.704Z,7.10
2018-01-27T07:02:11.917Z,7.20
2018-01-27T07:04:38.260Z,7.20
2018-01-27T07:07:04.483Z,7.40
2018-01-27T07:09:30.696Z,7.20
2018-01-27T07:11:56.948Z,7.10
2018-01-27T07:14:23.199Z,7.00
2018-01-27T07:16:49.428Z,7.00
2018-01-27T07:19:15.656Z,6.90
2018-01-27T07:21:41.980Z,6.90
2018-01-27T07:24:08.212Z,6.70
2018-01-27T07:26:34.520Z,6.70
2018-01-27T07:29:00.719Z,6.60
2018-01-27T07:31:26.935Z,6.60
2018-01-27T07:33:53.163Z,6.60
2018-01-27T07:36:19.378Z,6.50
2018-01-27T07:38:45.864Z,6.50
2018-01-27T07:41:12.099Z,6.50
2018-01-27T07:43:38.564Z,6.50
2018-01-27T07:46:04.781Z,6.50
2018-01-27T07:48:31.017Z,6.40
2018-01-27T07:50:57.233Z,6.40
2018-01-27T07:53:23.523Z,6.50
2018-01-27T07:55:49.752Z,6.50
2018-01-27T07:58:15.961Z,6.50
2018-01-27T08:00:45.319Z,6.40
2018-01-27T08:03:11.532Z,6.50
2018-01-27T08:05:39.468Z,6.50
2018-01-27T08:08:06.453Z,6.50
2018-01-27T08:10:32.481Z,6.50
2018-01-27T08:12:58.512Z,6.60
2018-01-27T08:15:24.733Z,6.70
2018-01-27T08:17:51.729Z,6.70
2018-01-27T08:20:18.365Z,6.60
2018-01-27T08:22:45.331Z,6.30
2018-01-27T08:25:12.261Z,6.10
2018-01-27T08:27:38.655Z,6.10
2018-01-27T08:30:08.968Z,6.00
2018-01-27T08:32:35.197Z,6.10
2018-01-27T08:35:02.169Z,6.10
2018-01-27T08:37:28.172Z,6.10
2018-01-27T08:39:54.421Z,6.20
2018-01-27T08:42:22.209Z,6.20
2018-01-27T08:44:48.428Z,6.50
2018-01-27T08:47:14.644Z,6.70
2018-01-27T08:49:40.929Z,6.90
2018-01-27T08:52:08.737Z,7.00
2018-01-27T08:54:34.956Z,7.00
2018-01-27T08:57:01.908Z,6.90
2018-01-27T08:59:28.856Z,7.00
2018-01-27T09:01:55.066Z,7.00
2018-01-27T09:04:21.256Z,7.00
2018-01-27T09:06:47.537Z,7.20
2018-01-27T09:09:13.734Z,7.30
2018-01-27T09:11:40.509Z,7.30
2018-01-27T09:14:06.825Z,7.30
2018-01-27T09:16:33.593Z,7.40
2018-01-27T09:18:59.619Z,7.40
2018-01-27T09:21:27.726Z,7.40
2018-01-27T09:23:54.065Z,7.40
2018-01-27T09:26:20.104Z,7.50
2018-01-27T09:28:46.134Z,7.60
2018-01-27T09:31:12.180Z,7.60
2018-01-27T09:33:38.368Z,7.60
2018-01-27T09:36:04.397Z,7.60
2018-01-27T09:38:30.739Z,7.70
2018-01-27T09:40:57.092Z,7.70
2018-01-27T09:43:23.298Z,7.80
2018-01-27T09:45:49.536Z,7.80
2018-01-27T09:48:15.756Z,7.80
2018-01-27T09:50:42.069Z,7.80
2018-01-27T09:53:09.324Z,7.90
2018-01-27T09:55:35.341Z,8.20
2018-01-27T09:58:01.374Z,8.40
2018-01-27T10:00:27.960Z,8.40
2018-01-27T10:02:54.968Z,8.50
2018-01-27T10:05:21.175Z,8.50
2018-01-27T10:07:47.393Z,8.50
2018-01-27T10:10:13.603Z,8.40
2018-01-27T10:12:39.836Z,8.50
2018-01-27T10:15:06.070Z,8.50
2018-01-27T10:17:33.128Z,8.30
2018-01-27T10:20:00.160Z,8.20
2018-01-27T10:22:27.153Z,8.10
2018-01-27T10:24:53.377Z,8.10
2018-01-27T10:27:19.848Z,8.10
2018-01-27T10:29:46.096Z,8.10
2018-01-27T10:32:12.604Z,8.00
2018-01-27T10:34:38.844Z,8.00
2018-01-27T10:37:05.088Z,8.10
2018-01-27T10:39:31.304Z,8.10
2018-01-27T10:41:58.272Z,8.10
2018-01-27T10:44:25.230Z,8.10
2018-01-27T10:46:51.504Z,8.10
2018-01-27T10:49:17.737Z,8.10
2018-01-27T10:51:44.037Z,8.10
2018-01-27T10:54:11.094Z,8.20
2018-01-27T10:56:38.105Z,8.20
2018-01-27T10:59:04.329Z,8.20
2018-01-27T11:01:31.273Z,8.00
2018-01-27T11:03:59.709Z,8.10
2018-01-27T11:06:26.007Z,8.10
2018-01-27T11:08:55.133Z,8.20
2018-01-27T11:11:22.080Z,8.20
2018-01-27T11:13:49.077Z,8.30
2018-01-27T11:16:15.313Z,8.30
2018-01-27T11:18:41.593Z,8.20
2018-01-27T11:21:07.836Z,8.20
2018-01-27T11:23:33.945Z,8.30
2018-01-27T11:26:03.125Z,8.30
2018-01-27T11:28:30.001Z,8.50
2018-01-27T11:30:56.992Z,8.50
2018-01-27T11:33:23.148Z,8.50
2018-01-27T11:35:49.916Z,8.60
2018-01-27T11:38:17.521Z,8.50
2018-01-27T11:40:43.733Z,8.60
2018-01-27T11:43:09.936Z,8.60
2018-01-27T11:45:36.283Z,8.70
2018-01-27T11:48:02.550Z,8.70
2018-01-27T11:50:28.764Z,8.60
2018-01-27T11:52:55.022Z,8.80
2018-01-27T11:55:21.992Z,9.00
2018-01-27T11:57:48.231Z,9.00
2018-01-27T12:00:15.184Z,9.10
2018-01-27T12:02:42.190Z,9.40
2018-01-27T12:05:09.041Z,9.40
2018-01-27T12:07:35.068Z,9.60
2018-01-27T12:10:05.159Z,9.60
2018-01-27T12:12:31.148Z,9.60
2018-01-27T12:14:57.165Z,9.60
2018-01-27T12:17:23.225Z,9.60
2018-01-27T12:19:49.453Z,10.00
2018-01-27T12:22:16.392Z,10.20
2018-01-27T12:24:45.101Z,10.10
2018-01-27T12:27:12.053Z,10.10
2018-01-27T12:29:39.317Z,10.00
2018-01-27T12:32:05.544Z,9.70
2018-01-27T12:34:32.526Z,9.60
2018-01-27T12:36:59.765Z,9.60
2018-01-27T12:39:26.757Z,9.70
2018-01-27T12:41:52.764Z,9.60
2018-01-27T12:44:18.984Z,10.00
2018-01-27T12:46:45.361Z,10.30
2018-01-27T12:49:11.620Z,10.60
2018-01-27T12:51:37.857Z,10.80
2018-01-27T12:54:04.151Z,11.10
2018-01-27T12:56:31.305Z,11.10
2018-01-27T12:58:58.209Z,11.00
2018-01-27T13:01:24.521Z,11.30
2018-01-27T13:03:50.746Z,11.30
2018-01-27T13:06:16.982Z,11.20
2018-01-27T13:08:43.440Z,11.40
2018-01-27T13:11:09.661Z,11.40
2018-01-27T13:13:35.951Z,11.20
2018-01-27T13:16:01.987Z,11.00
2018-01-27T13:18:28.745Z,11.10
2018-01-27T13:20:55.504Z,11.10
2018-01-27T13:23:21.521Z,11.10
2018-01-27T13:25:49.628Z,11.20
2018-01-27T13:28:18.114Z,11.00
2018-01-27T13:30:44.319Z,11.30
2018-01-27T13:33:10.545Z,11.20
2018-01-27T13:35:36.860Z,10.70
2018-01-27T13:38:03.376Z,10.50
2018-01-27T13:40:29.597Z,10.20
2018-01-27T13:42:59.342Z,10.50
2018-01-27T13:45:25.572Z,10.80
2018-01-27T13:47:51.808Z,11.10
2018-01-27T13:50:17.830Z,11.30
2018-01-27T13:52:43.856Z,11.10
2018-01-27T13:55:09.880Z,11.20
2018-01-27T13:57:36.780Z,10.80
2018-01-27T14:00:06.643Z,10.80
2018-01-27T14:02:32.919Z,11.00
2018-01-27T14:04:59.158Z,10.90
2018-01-27T14:07:26.180Z,10.50
2018-01-27T14:09:52.393Z,10.50
2018-01-27T14:12:18.616Z,10.30
2018-01-27T14:14:45.984Z,9.70
2018-01-27T14:17:12.947Z,10.10
2018-01-27T14:19:39.189Z,10.10
2018-01-27T14:22:05.468Z,10.40
2018-01-27T14:24:31.746Z,10.30
2018-01-27T14:26:58.717Z,10.30
2018-01-27T14:29:25.684Z,10.10
2018-01-27T14:31:51.980Z,10.10
2018-01-27T14:34:19.209Z,10.00
2018-01-27T14:36:45.240Z,9.70
2018-01-27T14:39:11.466Z,9.60
2018-01-27T14:41:37.713Z,9.70
2018-01-27T14:44:04.720Z,9.80
2018-01-27T14:46:36.600Z,9.80
2018-01-27T14:49:04.621Z,10.00
2018-01-27T14:51:30.872Z,10.00
2018-01-27T14:53:57.136Z,10.10
2018-01-27T14:56:23.380Z,10.10
2018-01-27T14:58:49.619Z,10.20
2018-01-27T15:01:15.685Z,10.10
2018-01-27T15:03:41.705Z,9.60
2018-01-27T15:06:07.757Z,9.90
2018-01-27T15:08:33.799Z,9.90
2018-01-27T15:10:59.904Z,9.80
2018-01-27T15:13:25.928Z,9.70
2018-01-27T15:15:51.964Z,9.60
2018-01-27T15:18:17.980Z,9.60
2018-01-27T15:20:44.015Z,9.50
2018-01-27T15:23:10.062Z,9.50
2018-01-27T15:25:36.117Z,9.40
2018-01-27T15:28:02.340Z,9.40
2018-01-27T15:30:29.071Z,9.30
2018-01-27T15:32:57.153Z,9.20
2018-01-27T15:35:23.360Z,9.20
2018-01-27T15:37:49.590Z,9.20
2018-01-27T15:40:15.904Z,9.20
2018-01-27T15:42:42.933Z,9.10
2018-01-27T15:45:12.084Z,9.10
2018-01-27T15:47:38.372Z,8.90
2018-01-27T15:50:04.595Z,8.80
2018-01-27T15:52:30.833Z,8.80
2018-01-27T15:54:57.058Z,8.80
2018-01-27T15:57:23.312Z,8.80
2018-01-27T15:59:49.586Z,8.60
2018-01-27T16:02:15.876Z,8.60
2018-01-27T16:04:42.113Z,8.60
2018-01-27T16:07:08.484Z,8.60
2018-01-27T16:09:34.743Z,8.50
2018-01-27T16:12:01.041Z,8.40
2018-01-27T16:14:28.108Z,8.40
2018-01-27T16:16:54.341Z,8.40
2018-01-27T16:19:20.780Z,8.30
2018-01-27T16:21:47.151Z,8.40
2018-01-27T16:24:13.377Z,8.30
2018-01-27T16:26:39.608Z,8.30
2018-01-27T16:29:05.883Z,8.30
2018-01-27T16:31:32.129Z,7.90
2018-01-27T16:33:58.380Z,8.00
2018-01-27T16:36:24.632Z,8.00
2018-01-27T16:38:51.628Z,8.00
2018-01-27T16:41:17.856Z,8.00
2018-01-27T16:43:44.831Z,7.80
2018-01-27T16:46:11.997Z,7.80
2018-01-27T16:48:38.329Z,7.80
2018-01-27T16:51:04.566Z,7.80
2018-01-27T16:53:30.575Z,7.70
2018-01-27T16:56:01.144Z,7.60
2018-01-27T16:58:27.922Z,7.50
2018-01-27T17:00:53.957Z,7.50
2018-01-27T17:03:19.985Z,7.50
2018-01-27T17:05:46.052Z,7.50
2018-01-27T17:08:12.089Z,7.50
2018-01-27T17:10:38.126Z,7.50
2018-01-27T17:13:06.743Z,7.40
2018-01-27T17:15:33.168Z,7.50
2018-01-27T17:17:59.201Z,7.50
2018-01-27T17:20:25.227Z,7.30
2018-01-27T17:22:51.251Z,7.30
2018-01-27T17:25:17.459Z,7.20
2018-01-27T17:27:43.733Z,7.10
2018-01-27T17:30:09.966Z,7.10
2018-01-27T17:32:36.225Z,7.10
2018-01-27T17:35:04.163Z,7.00
2018-01-27T17:37:30.404Z,7.00
2018-01-27T17:39:56.677Z,6.70
2018-01-27T17:42:22.973Z,6.90
2018-01-27T17:44:49.920Z,7.00
2018-01-27T17:47:16.172Z,6.90
2018-01-27T17:49:42.434Z,6.90
2018-01-27T17:52:14.578Z,6.80
2018-01-27T17:54:41.398Z,6.90
2018-01-27T17:57:07.641Z,6.60
2018-01-27T17:59:33.920Z,6.90
2018-01-27T18:02:00.193Z,6.90
2018-01-27T18:04:26.456Z,6.90
2018-01-27T18:06:52.710Z,6.80
2018-01-27T18:09:22.589Z,7.00
2018-01-27T18:11:48.785Z,6.90
2018-01-27T18:14:15.009Z,6.90
2018-01-27T18:16:41.232Z,7.00
2018-01-27T18:19:07.276Z,6.90
2018-01-27T18:21:33.555Z,7.00
2018-01-27T18:23:59.644Z,7.00
2018-01-27T18:26:26.441Z,6.90
2018-01-27T18:28:56.095Z,6.90
2018-01-27T18:31:23.984Z,6.80
2018-01-27T18:33:50.980Z,6.80
2018-01-27T18:36:17.401Z,6.90
2018-01-27T18:38:43.660Z,6.90
2018-01-27T18:41:10.208Z,6.80
2018-01-27T18:43:36.988Z,6.80
2018-01-27T18:46:04.544Z,6.90
2018-01-27T18:48:31.533Z,6.90
2018-01-27T18:50:57.752Z,6.90
2018-01-27T18:53:24.716Z,6.80
2018-01-27T18:55:51.691Z,6.90
2018-01-27T18:58:17.927Z,6.90
2018-01-27T19:00:44.872Z,6.90
2018-01-27T19:03:15.364Z,6.90
2018-01-27T19:05:41.601Z,6.90
2018-01-27T19:08:08.058Z,7.00
2018-01-27T19:10:34.325Z,7.00
2018-01-27T19:13:01.336Z,7.00
2018-01-27T19:15:27.600Z,6.90
2018-01-27T19:17:53.804Z,6.90
2018-01-27T19:20:22.956Z,6.90
2018-01-27T19:22:49.181Z,6.90
2018-01-27T19:25:17.198Z,6.90
2018-01-27T19:27:43.554Z,6.90
2018-01-27T19:30:09.584Z,6.90
2018-01-27T19:32:35.648Z,7.00
2018-01-27T19:35:01.684Z,7.00
2018-01-27T19:37:28.089Z,7.10
2018-01-27T19:39:59.274Z,7.10
2018-01-27T19:42:26.040Z,7.10
2018-01-27T19:44:52.109Z,7.10
2018-01-27T19:47:18.880Z,7.10
2018-01-27T19:49:45.119Z,7.10
2018-01-27T19:52:11.353Z,7.10
2018-01-27T19:54:41.221Z,6.90
2018-01-27T19:57:07.505Z,6.90
2018-01-27T19:59:34.577Z,6.90
2018-01-27T20:02:00.806Z,6.80
2018-01-27T20:04:27.040Z,6.50
2018-01-27T20:06:53.293Z,6.80
2018-01-27T20:09:19.504Z,6.90
2018-01-27T20:11:45.729Z,6.80
2018-01-27T20:14:12.876Z,6.80
2018-01-27T20:16:39.645Z,6.80
2018-01-27T20:19:06.387Z,6.80
2018-01-27T20:21:33.159Z,6.80
2018-01-27T20:23:59.397Z,6.80
2018-01-27T20:26:25.845Z,6.80
2018-01-27T20:28:52.665Z,6.80
2018-01-27T20:31:18.901Z,6.80
2018-01-27T20:33:44.932Z,6.80
2018-01-27T20:36:12.217Z,6.70
2018-01-27T20:38:38.383Z,6.70
2018-01-27T20:41:05.288Z,6.70
2018-01-27T20:43:32.292Z,6.70
2018-01-27T20:45:58.320Z,6.80
2018-01-27T20:48:25.281Z,6.80
2018-01-27T20:50:52.068Z,6.90
2018-01-27T20:53:18.321Z,6.80
2018-01-27T20:55:44.401Z,6.90
2018-01-27T20:58:10.587Z,6.90
2018-01-27T21:00:37.002Z,7.00
2018-01-27T21:03:03.305Z,7.00
2018-01-27T21:05:29.528Z,7.00
2018-01-27T21:07:55.795Z,6.90
2018-01-27T21:10:22.036Z,7.00
2018-01-27T21:12:48.497Z,7.00
2018-01-27T21:15:14.809Z,7.00
2018-01-27T21:17:41.057Z,7.00
2018-01-27T21:20:09.133Z,7.00
2018-01-27T21:22:36.144Z,7.00
2018-01-27T21:25:05.598Z,7.00
2018-01-27T21:27:32.408Z,6.90
2018-01-27T21:29:59.187Z,7.00
2018-01-27T21:32:25.304Z,6.90
2018-01-27T21:34:52.137Z,7.00
2018-01-27T21:37:18.388Z,7.00
2018-01-27T21:39:45.420Z,7.00
2018-01-27T21:42:11.689Z,7.20
2018-01-27T21:44:39.393Z,7.00
2018-01-27T21:47:05.814Z,7.00
2018-01-27T21:49:32.152Z,7.00
2018-01-27T21:51:59.140Z,7.10
2018-01-27T21:54:25.394Z,7.10
2018-01-27T21:56:52.348Z,7.10
2018-01-27T21:59:19.288Z,7.30
2018-01-27T22:01:46.074Z,7.30
2018-01-27T22:04:12.326Z,7.30
2018-01-27T22:06:38.402Z,7.30
2018-01-27T22:09:04.611Z,7.30
2018-01-27T22:11:30.625Z,7.30
2018-01-27T22:13:56.665Z,7.30
2018-01-27T22:16:24.945Z,7.30
2018-01-27T22:18:51.175Z,7.50
2018-01-27T22:21:19.028Z,7.30
2018-01-27T22:23:46.026Z,7.30
2018-01-27T22:26:13.269Z,7.30
2018-01-27T22:28:39.517Z,7.30
2018-01-27T22:31:05.869Z,7.40
2018-01-27T22:33:32.120Z,7.40
2018-01-27T22:35:59.198Z,7.40
2018-01-27T22:38:25.467Z,7.40
2018-01-27T22:40:51.518Z,7.40
2018-01-27T22:43:17.712Z,7.40
2018-01-27T22:45:44.540Z,7.40
2018-01-27T22:48:10.620Z,7.40
2018-01-27T22:50:36.649Z,7.50
2018-01-27T22:53:03.672Z,7.40
2018-01-27T22:55:30.153Z,7.40
2018-01-27T22:57:56.475Z,7.30
2018-01-27T23:00:22.783Z,7.30
2018-01-27T23:02:49.019Z,7.30
2018-01-27T23:05:15.284Z,7.30
2018-01-27T23:07:41.674Z,7.20
2018-01-27T23:10:07.917Z,7.20
2018-01-27T23:12:34.932Z,7.10
2018-01-27T23:15:01.200Z,7.10
2018-01-27T23:17:28.282Z,7.10
2018-01-27T23:19:54.536Z,7.00
2018-01-27T23:22:20.877Z,7.00
2018-01-27T23:24:47.183Z,6.90
2018-01-27T23:27:13.652Z,6.90
2018-01-27T23:29:40.716Z,6.70
2018-01-27T23:32:08.384Z,6.70
2018-01-27T23:34:34.495Z,6.60
2018-01-27T23:37:00.520Z,6.30
2018-01-27T23:39:26.677Z,6.20
2018-01-27T23:41:53.056Z,6.10
2018-01-27T23:44:19.255Z,5.70
2018-01-27T23:46:45.302Z,6.00
2018-01-27T23:49:11.512Z,5.90
2018-01-27T23:51:37.711Z,5.90
2018-01-27T23:54:03.977Z,5.90
2018-01-27T23:56:30.321Z,5.80
2018-01-27T23:58:57.176Z,5.80
